»·PEaware :: N16RD KMYF-KNYL

N16RD :: KMYF-KNYL

FLIGHT INFORMATION

Flight Status: Arrived
Operator: Privately registered:
United States
More flights under this callsign
Pilot: Brett B. (12105)
Aircraft: CESSNA R182 TURBO SKYLANE
(C82R)
More flights by this aircraft type
Origin: KMYF Montgomery
United States
Destination: KNYL Yuma MCAS/Yuma Intl
United States
More flights between these airports :: More routes between these airports
Route: +MZB V66 BZA
File this flight plan on PilotEdge
Remarks: alphabet challenge
Altitude:
(Current/Filed)
17,000ft
Speed:
(Current/Filed)
220kts
Departed: 27-Oct-17 09:12 PM
Arrived: 27-Oct-17 09:54 PM
Distance/Time
Traveled:
128nm/0:42
Distance/Time
To Go:
Arrived

Flight Plot

Page will automatically refresh every two minutes.


Map Options




Map Legend


Flown Route
Filed Route
Departure Airport
Arrival Airport
Navaid (VOR, NDB)
Fix

Horizontal Profiles

Position Reports

Time Latitude Longitude Heading Altitude Ground
Speed
27-Oct-17 21:01 32.811863 -117.144844 1 430ft 0kts
27-Oct-17 21:02 32.811863 -117.144844 1 430ft 0kts
27-Oct-17 21:03 32.811863 -117.144844 1 430ft 0kts
27-Oct-17 21:04 32.811863 -117.144844 1 430ft 0kts
27-Oct-17 21:05 32.811863 -117.144844 1 430ft 0kts
27-Oct-17 21:06 32.811863 -117.144844 1 430ft 0kts
27-Oct-17 21:07 32.813851 -117.140656 23 431ft 0kts
27-Oct-17 21:08 32.813852 -117.140655 23 431ft 0kts
27-Oct-17 21:09 32.813853 -117.140655 23 431ft 0kts
27-Oct-17 21:10 32.813855 -117.140654 23 431ft 0kts
27-Oct-17 21:11 32.813856 -117.140653 23 431ft 0kts
27-Oct-17 21:12 32.813857 -117.140653 23 431ft 0kts
27-Oct-17 21:13 32.813115 -117.137569 117 431ft 24kts
27-Oct-17 21:14 32.812544 -117.135648 21 431ft 0kts
27-Oct-17 21:15 32.812545 -117.135648 21 431ft 0kts
27-Oct-17 21:16 32.813014 -117.135571 306 431ft 3kts
27-Oct-17 21:17 32.826268 -117.170922 291 1325ft 177kts
27-Oct-17 21:18 32.822608 -117.232594 209 2590ft 234kts
27-Oct-17 21:19 32.781563 -117.206515 94 2970ft 250kts
27-Oct-17 21:20 32.776347 -117.112805 90 4386ft 228kts
27-Oct-17 21:21 32.772967 -117.054017 90 4953ft 202kts
27-Oct-17 21:22 32.768973 -116.990660 90 4038ft 175kts
27-Oct-17 21:23 32.768092 -116.939309 85 4649ft 175kts
27-Oct-17 21:24 32.769346 -116.857037 85 4406ft 227kts
27-Oct-17 21:25 32.773542 -116.795259 75 4380ft 222kts
27-Oct-17 21:26 32.787630 -116.713492 72 4395ft 222kts
27-Oct-17 21:27 32.795798 -116.645721 101 5268ft 207kts
27-Oct-17 21:28 32.780513 -116.588465 104 6740ft 232kts
27-Oct-17 21:29 32.772570 -116.512017 95 8388ft 231kts
27-Oct-17 21:30 32.769644 -116.433291 94 8483ft 233kts
27-Oct-17 21:31 32.767945 -116.358124 94 8484ft 224kts
27-Oct-17 21:32 32.766373 -116.283488 93 8488ft 230kts
27-Oct-17 21:33 32.764736 -116.206509 91 8468ft 238kts
27-Oct-17 21:34 32.763074 -116.127136 91 8460ft 240kts
27-Oct-17 21:35 32.761375 -116.047827 91 8460ft 240kts
27-Oct-17 21:36 32.759557 -115.968708 88 8453ft 235kts
27-Oct-17 21:37 32.757857 -115.891698 87 8452ft 232kts
27-Oct-17 21:38 32.756112 -115.815283 88 8455ft 231kts
27-Oct-17 21:39 32.754286 -115.738907 87 8458ft 228kts
27-Oct-17 21:40 32.752470 -115.663645 87 8463ft 228kts
27-Oct-17 21:41 32.750631 -115.588528 87 8466ft 228kts
27-Oct-17 21:42 32.749196 -115.513115 86 8462ft 227kts
27-Oct-17 21:43 32.750300 -115.438132 84 8458ft 227kts
27-Oct-17 21:44 32.751987 -115.362960 84 8458ft 227kts
27-Oct-17 21:45 32.753722 -115.288052 84 8461ft 227kts
27-Oct-17 21:46 32.755433 -115.213025 84 8491ft 226kts
27-Oct-17 21:47 32.757106 -115.137899 84 8493ft 222kts
27-Oct-17 21:48 32.758704 -115.064513 85 6704ft 224kts
27-Oct-17 21:49 32.760251 -114.992088 85 4939ft 208kts
27-Oct-17 21:50 32.761496 -114.929522 82 4495ft 168kts
27-Oct-17 21:51 32.762716 -114.877294 83 4499ft 151kts
27-Oct-17 21:52 32.763723 -114.828761 82 4492ft 139kts
27-Oct-17 21:53 32.742530 -114.781272 124 3238ft 202kts
27-Oct-17 21:54 32.719434 -114.727787 126 2937ft 160kts
27-Oct-17 21:55 32.678260 -114.715151 145 2449ft 129kts
27-Oct-17 21:56 32.649522 -114.688904 136 1834ft 129kts
27-Oct-17 21:57 32.626852 -114.660427 108 940ft 115kts
27-Oct-17 21:58 32.640099 -114.625505 42 262ft 129kts
27-Oct-17 21:59 32.658141 -114.604814 42 220ft 25kts
27-Oct-17 22:00 32.663721 -114.603930 358 220ft 35kts
27-Oct-17 22:01 32.663100 -114.605514 179 220ft 25kts
27-Oct-17 22:02 32.661929 -114.608789 344 220ft 6kts
27-Oct-17 22:03 32.661985 -114.608799 4 220ft 0kts
27-Oct-17 22:04 32.661985 -114.608799 4 220ft 0kts
27-Oct-17 22:05 32.661985 -114.608799 4 220ft 0kts
27-Oct-17 22:06 32.661985 -114.608799 4 220ft 0kts
27-Oct-17 22:07 32.661985 -114.608799 4 220ft 0kts
27-Oct-17 22:08 32.661985 -114.608799 4 220ft 0kts
27-Oct-17 22:09 32.661985 -114.608799 4 220ft 0kts
27-Oct-17 22:10 32.661985 -114.608799 4 220ft 0kts
27-Oct-17 22:11 32.672140 -114.608497 279 202ft 36kts
27-Oct-17 22:12 32.672091 -114.608925 171 202ft 0kts
27-Oct-17 22:13 32.665981 -114.606546 95 220ft 0kts

Navigation Log

Ident Type
Flight plan parsing failed, navigation log unavailable